createdAt,value
2018-12-05T00:01:26.973Z,4.77
2018-12-05T00:04:18.515Z,4.83
2018-12-05T00:06:53.518Z,3.97
2018-12-05T00:09:29.209Z,4.50
2018-12-05T00:11:59.194Z,3.90
2018-12-05T00:14:31.564Z,6.40
2018-12-05T00:17:03.594Z,4.37
2018-12-05T00:19:38.011Z,3.90
2018-12-05T00:22:08.741Z,5.40
2018-12-05T00:24:40.973Z,9.80
2018-12-05T00:27:13.822Z,4.60
2018-12-05T00:29:43.669Z,4.00
2018-12-05T00:32:12.762Z,3.63
2018-12-05T00:34:41.824Z,5.23
2018-12-05T00:37:11.058Z,3.53
2018-12-05T00:39:41.035Z,6.50
2018-12-05T00:42:09.996Z,3.80
2018-12-05T00:44:38.969Z,3.30
2018-12-05T00:47:07.791Z,3.30
2018-12-05T00:49:36.696Z,3.03
2018-12-05T00:52:05.611Z,3.73
2018-12-05T00:54:34.403Z,2.90
2018-12-05T00:57:03.738Z,3.53
2018-12-05T00:59:32.535Z,4.10
2018-12-05T01:02:01.381Z,3.57
2018-12-05T01:04:30.303Z,4.43
2018-12-05T01:06:59.112Z,4.67
2018-12-05T01:09:27.915Z,5.20
2018-12-05T01:11:56.740Z,3.60
2018-12-05T01:14:25.640Z,5.57
2018-12-05T01:16:54.610Z,4.03
2018-12-05T01:19:23.403Z,4.30
2018-12-05T01:21:52.232Z,3.60
2018-12-05T01:24:21.031Z,3.50
2018-12-05T01:26:50.122Z,3.40
2018-12-05T01:29:18.982Z,5.57
2018-12-05T01:31:48.282Z,4.33
2018-12-05T01:34:17.096Z,4.80
2018-12-05T01:36:45.891Z,3.00
2018-12-05T01:39:14.686Z,3.13
2018-12-05T01:41:43.498Z,5.93
2018-12-05T01:44:12.295Z,3.17
2018-12-05T01:46:41.372Z,3.97
2018-12-05T01:49:10.162Z,7.13
2018-12-05T01:51:38.951Z,4.60
2018-12-05T01:54:08.303Z,4.40
2018-12-05T01:56:37.172Z,3.43
2018-12-05T01:59:06.231Z,3.17
2018-12-05T02:01:35.063Z,3.00
2018-12-05T02:04:08.848Z,2.90
2018-12-05T02:06:37.735Z,3.73
2018-12-05T02:09:08.290Z,2.53
2018-12-05T02:11:37.270Z,5.43
2018-12-05T02:14:06.263Z,3.27
2018-12-05T02:16:35.153Z,3.20
2018-12-05T02:19:04.123Z,2.30
2018-12-05T02:21:32.907Z,2.67
2018-12-05T02:24:01.806Z,2.30
2018-12-05T02:26:30.627Z,2.20
2018-12-05T02:28:59.611Z,2.00
2018-12-05T02:31:28.516Z,3.23
2018-12-05T02:33:57.412Z,2.27
2018-12-05T02:36:26.221Z,2.33
2018-12-05T02:38:55.049Z,2.50
2018-12-05T02:41:23.846Z,2.17
2018-12-05T02:43:52.688Z,2.30
2018-12-05T02:46:21.526Z,3.23
2018-12-05T02:48:50.347Z,2.77
2018-12-05T02:51:19.244Z,2.30
2018-12-05T02:53:48.077Z,2.67
2018-12-05T02:56:16.889Z,2.27
2018-12-05T02:58:45.753Z,2.30
2018-12-05T03:01:14.642Z,4.03
2018-12-05T03:03:43.457Z,4.37
2018-12-05T03:06:12.470Z,4.30
2018-12-05T03:08:41.299Z,4.97
2018-12-05T03:11:10.117Z,4.03
2018-12-05T03:13:39.044Z,2.37
2018-12-05T03:16:07.836Z,2.70
2018-12-05T03:18:36.647Z,3.83
2018-12-05T03:21:05.451Z,3.40
2018-12-05T03:23:34.258Z,2.80
2018-12-05T03:26:03.109Z,8.27
2018-12-05T03:28:31.987Z,3.53
2018-12-05T03:31:00.792Z,3.80
2018-12-05T03:33:29.678Z,3.07
2018-12-05T03:35:58.479Z,2.70
2018-12-05T03:38:27.369Z,3.47
2018-12-05T03:40:56.179Z,3.77
2018-12-05T03:43:24.994Z,3.70
2018-12-05T03:45:53.818Z,3.67
2018-12-05T03:48:22.628Z,4.40
2018-12-05T03:50:51.442Z,2.10
2018-12-05T03:53:20.263Z,3.00
2018-12-05T03:55:49.078Z,4.50
2018-12-05T03:58:17.899Z,3.27
2018-12-05T04:00:46.767Z,3.43
2018-12-05T04:03:15.609Z,2.43
2018-12-05T04:05:44.411Z,2.53
2018-12-05T04:08:13.254Z,2.00
2018-12-05T04:10:42.055Z,1.87
2018-12-05T04:13:10.877Z,2.07
2018-12-05T04:15:39.685Z,2.27
2018-12-05T04:18:08.483Z,2.50
2018-12-05T04:20:37.298Z,1.77
2018-12-05T04:23:06.187Z,3.27
2018-12-05T04:25:35.067Z,2.73
2018-12-05T04:28:03.953Z,2.63
2018-12-05T04:30:32.758Z,2.40
2018-12-05T04:33:01.560Z,4.53
2018-12-05T04:35:30.475Z,3.30
2018-12-05T04:37:59.267Z,1.73
2018-12-05T04:40:28.247Z,3.00
2018-12-05T04:42:57.063Z,2.40
2018-12-05T04:45:25.867Z,3.07
2018-12-05T04:47:54.689Z,2.87
2018-12-05T04:50:23.499Z,2.57
2018-12-05T04:52:52.306Z,6.53
2018-12-05T04:55:21.118Z,2.87
2018-12-05T04:57:49.921Z,2.50
2018-12-05T05:00:18.800Z,1.93
2018-12-05T05:02:47.594Z,2.07
2018-12-05T05:05:16.407Z,6.30
2018-12-05T05:07:45.274Z,2.33
2018-12-05T05:10:16.448Z,3.60
2018-12-05T05:12:45.377Z,2.10
2018-12-05T05:15:14.211Z,5.17
2018-12-05T05:17:43.033Z,2.70
2018-12-05T05:20:12.035Z,3.40
2018-12-05T05:22:40.910Z,3.43
2018-12-05T05:25:09.827Z,3.77
2018-12-05T05:27:45.729Z,4.27
2018-12-05T05:30:09.731Z,4.17
2018-12-05T05:32:39.106Z,3.03
2018-12-05T05:35:08.102Z,4.53
2018-12-05T05:37:36.923Z,4.03
2018-12-05T05:40:05.941Z,3.97
2018-12-05T05:42:34.751Z,3.33
2018-12-05T05:45:03.843Z,4.40
2018-12-05T05:47:32.704Z,3.27
2018-12-05T05:50:01.534Z,5.70
2018-12-05T05:52:30.343Z,3.70
2018-12-05T05:54:59.172Z,3.00
2018-12-05T05:57:27.995Z,3.53
2018-12-05T05:59:56.815Z,3.67
2018-12-05T06:02:25.619Z,4.60
2018-12-05T06:04:54.463Z,3.17
2018-12-05T06:07:23.283Z,3.53
2018-12-05T06:09:52.183Z,3.10
2018-12-05T06:12:21.007Z,3.23
2018-12-05T06:14:53.115Z,5.83
2018-12-05T06:17:27.927Z,2.80
2018-12-05T06:20:03.240Z,4.00
2018-12-05T06:22:34.025Z,3.50
2018-12-05T06:25:08.921Z,3.47
2018-12-05T06:27:56.723Z,3.47
2018-12-05T06:30:25.603Z,5.30
2018-12-05T06:32:54.439Z,4.77
2018-12-05T06:35:23.246Z,6.87
2018-12-05T06:37:52.070Z,7.37
2018-12-05T06:40:20.911Z,5.33
2018-12-05T06:42:49.791Z,3.20
2018-12-05T06:45:18.703Z,4.60
2018-12-05T06:47:47.519Z,5.53
2018-12-05T06:50:16.352Z,5.30
2018-12-05T06:52:45.171Z,6.47
2018-12-05T06:55:14.001Z,4.93
2018-12-05T06:57:43.064Z,6.87
2018-12-05T07:00:11.990Z,9.40
2018-12-05T07:02:40.798Z,4.67
2018-12-05T07:05:09.611Z,5.13
2018-12-05T07:07:38.455Z,4.63
2018-12-05T07:10:07.494Z,6.20
2018-12-05T07:12:36.316Z,4.40
2018-12-05T07:15:05.519Z,3.03
2018-12-05T07:17:34.316Z,3.53
2018-12-05T07:20:03.907Z,4.53
2018-12-05T07:22:32.716Z,4.20
2018-12-05T07:25:01.616Z,3.43
2018-12-05T07:27:30.399Z,31.60
2018-12-05T07:29:59.208Z,4.13
2018-12-05T07:32:28.016Z,4.00
2018-12-05T07:34:56.944Z,5.57
2018-12-05T07:37:25.739Z,3.87
2018-12-05T07:39:54.552Z,3.33
2018-12-05T07:42:23.359Z,4.93
2018-12-05T07:44:52.166Z,3.63
2018-12-05T07:47:20.965Z,4.63
2018-12-05T07:49:49.762Z,6.33
2018-12-05T07:52:18.661Z,3.23
2018-12-05T07:54:47.576Z,4.30
2018-12-05T07:57:16.390Z,5.13
2018-12-05T07:59:45.179Z,4.60
2018-12-05T08:02:14.071Z,3.93
2018-12-05T08:04:42.875Z,3.70
2018-12-05T08:07:11.671Z,5.57
2018-12-05T08:09:40.476Z,2.93
2018-12-05T08:12:09.288Z,4.37
2018-12-05T08:14:38.103Z,3.20
2018-12-05T08:17:06.906Z,3.50
2018-12-05T08:19:35.795Z,4.53
2018-12-05T08:22:04.770Z,4.53
2018-12-05T08:24:33.566Z,5.30
2018-12-05T08:27:02.394Z,5.10
2018-12-05T08:29:31.208Z,5.13
2018-12-05T08:32:00.005Z,5.23
2018-12-05T08:34:28.802Z,4.03
2018-12-05T08:36:57.650Z,5.20
2018-12-05T08:39:26.456Z,38.37
2018-12-05T08:41:55.296Z,9.70
2018-12-05T08:44:24.087Z,6.27
2018-12-05T08:46:52.893Z,9.30
2018-12-05T08:49:21.750Z,5.60
2018-12-05T08:51:50.558Z,5.33
2018-12-05T08:54:21.204Z,4.67
2018-12-05T08:56:50.205Z,3.80
2018-12-05T09:02:18.067Z,4.17
2018-12-05T09:04:50.687Z,3.80
2018-12-05T09:07:21.711Z,2.63
2018-12-05T09:09:50.878Z,2.90
2018-12-05T09:12:19.823Z,4.73
2018-12-05T09:14:48.672Z,4.20
2018-12-05T09:17:19.687Z,3.10
2018-12-05T09:19:49.092Z,3.30
2018-12-05T09:22:18.232Z,7.87
2018-12-05T09:24:47.300Z,2.63
2018-12-05T09:27:16.732Z,3.10
2018-12-05T09:29:46.437Z,4.83
2018-12-05T09:32:15.950Z,3.70
2018-12-05T09:34:51.087Z,4.20
2018-12-05T09:37:20.397Z,3.30
2018-12-05T09:39:49.461Z,2.37
2018-12-05T09:42:18.628Z,2.20
2018-12-05T09:44:47.979Z,3.20
2018-12-05T09:47:20.994Z,2.63
2018-12-05T09:49:51.823Z,3.80
2018-12-05T09:52:21.408Z,3.47
2018-12-05T09:59:51.458Z,9.30
2018-12-05T10:02:20.279Z,5.53
2018-12-05T10:04:49.152Z,3.13
2018-12-05T10:07:17.906Z,6.33
2018-12-05T10:12:50.013Z,4.87
2018-12-05T10:15:18.832Z,4.00
2018-12-05T10:17:47.985Z,4.80
2018-12-05T10:20:16.849Z,4.97
2018-12-05T10:22:45.679Z,5.63
2018-12-05T10:25:14.519Z,5.17
2018-12-05T10:27:43.338Z,6.97
2018-12-05T10:30:12.335Z,6.83
2018-12-05T10:32:41.162Z,7.63
2018-12-05T10:35:10.163Z,6.83
2018-12-05T10:37:39.247Z,8.63
2018-12-05T10:40:09.076Z,8.40
2018-12-05T10:42:37.919Z,9.97
2018-12-05T10:45:07.665Z,10.27
2018-12-05T10:47:36.575Z,10.57
2018-12-05T10:50:06.529Z,7.90
2018-12-05T10:52:35.803Z,8.27
2018-12-05T10:55:04.918Z,7.23
2018-12-05T10:57:33.755Z,7.47
2018-12-05T11:00:02.988Z,6.60
2018-12-05T11:02:37.306Z,6.93
2018-12-05T11:05:11.617Z,10.27
2018-12-05T11:07:45.898Z,5.80
2018-12-05T11:10:20.365Z,6.90
2018-12-05T11:12:54.528Z,9.50
2018-12-05T11:15:34.660Z,9.40
2018-12-05T11:18:08.871Z,7.90
2018-12-05T11:21:49.698Z,6.60
2018-12-05T11:24:21.629Z,7.13
2018-12-05T11:26:50.572Z,6.73
2018-12-05T11:29:19.435Z,11.70
2018-12-05T11:31:48.347Z,7.67
2018-12-05T11:34:17.175Z,7.30
2018-12-05T11:36:46.005Z,7.67
2018-12-05T11:39:14.878Z,5.67
2018-12-05T11:41:43.691Z,5.30
2018-12-05T11:44:12.607Z,6.10
2018-12-05T11:46:41.452Z,4.17
2018-12-05T11:49:10.259Z,6.00
2018-12-05T11:51:39.239Z,3.53
2018-12-05T11:54:08.043Z,4.50
2018-12-05T11:56:36.931Z,3.23
2018-12-05T11:59:05.827Z,4.40
2018-12-05T12:01:34.639Z,5.47
2018-12-05T12:04:03.547Z,3.53
2018-12-05T12:06:32.371Z,4.10
2018-12-05T12:09:01.217Z,7.23
2018-12-05T12:11:30.261Z,5.70
2018-12-05T12:13:59.174Z,5.37
2018-12-05T12:16:27.995Z,4.63
2018-12-05T12:18:56.835Z,4.83
2018-12-05T12:21:25.692Z,4.93
2018-12-05T12:23:54.565Z,5.17
2018-12-05T12:26:23.381Z,4.20
2018-12-05T12:28:52.244Z,4.83
2018-12-05T12:31:21.175Z,5.70
2018-12-05T12:33:49.993Z,5.63
2018-12-05T12:36:18.917Z,6.40
2018-12-05T12:38:47.793Z,5.53
2018-12-05T12:41:16.639Z,5.90
2018-12-05T12:43:45.555Z,4.30
2018-12-05T12:46:14.378Z,4.80
2018-12-05T12:48:43.194Z,5.30
2018-12-05T12:51:12.188Z,5.27
2018-12-05T12:53:41.759Z,4.50
2018-12-05T12:56:10.672Z,4.30
2018-12-05T12:58:39.627Z,4.13
2018-12-05T13:01:08.584Z,6.73
2018-12-05T13:03:37.391Z,4.60
2018-12-05T13:06:06.405Z,7.27
2018-12-05T13:08:35.939Z,5.07
2018-12-05T13:11:04.848Z,5.10
2018-12-05T13:13:33.696Z,7.23
2018-12-05T13:16:02.490Z,7.67
2018-12-05T13:18:31.415Z,8.90
2018-12-05T13:21:00.273Z,6.30
2018-12-05T13:23:29.175Z,6.90
2018-12-05T13:25:58.107Z,6.90
2018-12-05T13:28:26.903Z,6.47
2018-12-05T13:30:55.783Z,7.90
2018-12-05T13:33:43.111Z,6.30
2018-12-05T13:36:12.034Z,9.63
2018-12-05T13:38:40.859Z,8.40
2018-12-05T13:41:11.416Z,7.87
2018-12-05T13:46:39.403Z,12.30
2018-12-05T13:49:08.222Z,7.43
2018-12-05T13:51:37.319Z,8.17
2018-12-05T13:54:06.283Z,8.70
2018-12-05T13:56:35.135Z,7.30
2018-12-05T13:59:04.207Z,8.70
2018-12-05T14:13:07.237Z,12.43
2018-12-05T14:18:29.236Z,15.50
2018-12-05T14:20:58.142Z,13.77
2018-12-05T14:23:26.987Z,12.93
2018-12-05T14:25:55.800Z,14.80
2018-12-05T14:28:24.695Z,8.50
2018-12-05T14:30:53.532Z,14.03
2018-12-05T14:33:22.407Z,20.80
2018-12-05T14:35:51.451Z,16.43
2018-12-05T14:38:20.297Z,10.93
2018-12-05T14:40:49.123Z,9.47
2018-12-05T14:43:17.950Z,13.60
2018-12-05T14:45:46.968Z,11.00
2018-12-05T14:48:15.797Z,11.83
2018-12-05T14:50:44.708Z,13.83
2018-12-05T14:53:13.547Z,14.87
2018-12-05T14:55:42.379Z,12.47
2018-12-05T14:58:11.429Z,16.30
2018-12-05T15:00:40.359Z,9.23
2018-12-05T15:03:09.815Z,10.17
2018-12-05T15:05:38.883Z,11.07
2018-12-05T15:08:07.855Z,11.40
2018-12-05T15:10:36.819Z,11.00
2018-12-05T15:13:05.647Z,10.80
2018-12-05T15:15:34.530Z,11.43
2018-12-05T15:18:03.494Z,12.83
2018-12-05T15:20:32.340Z,13.60
2018-12-05T15:25:48.904Z,15.67
2018-12-05T15:28:17.868Z,10.73
2018-12-05T15:30:46.737Z,10.50
2018-12-05T15:33:16.384Z,13.70
2018-12-05T15:35:45.278Z,11.60
2018-12-05T15:38:14.153Z,11.40
2018-12-05T15:40:43.003Z,12.80
2018-12-05T15:43:11.858Z,13.13
2018-12-05T15:45:40.812Z,11.30
2018-12-05T15:48:09.773Z,12.70
2018-12-05T15:50:38.942Z,14.90
2018-12-05T15:53:07.800Z,15.60
2018-12-05T15:55:36.684Z,15.70
2018-12-05T15:58:05.649Z,14.33
2018-12-05T16:00:34.481Z,12.17
2018-12-05T16:03:03.876Z,13.33
2018-12-05T16:05:32.771Z,13.90
2018-12-05T16:08:02.035Z,13.87
2018-12-05T16:10:30.909Z,13.53
2018-12-05T16:12:59.976Z,14.40
2018-12-05T16:15:29.088Z,12.60
2018-12-05T16:17:58.049Z,13.40
2018-12-05T16:20:27.216Z,15.33
2018-12-05T16:22:56.103Z,16.27
2018-12-05T16:25:25.302Z,15.03
2018-12-05T16:27:54.237Z,15.00
2018-12-05T16:30:23.304Z,12.87
2018-12-05T16:32:52.160Z,14.70
2018-12-05T16:35:21.135Z,13.83
2018-12-05T16:37:51.571Z,12.30
2018-12-05T16:40:20.608Z,15.60
2018-12-05T16:42:49.720Z,18.80
2018-12-05T16:45:18.665Z,18.53
2018-12-05T16:47:47.576Z,18.67
2018-12-05T16:50:16.748Z,14.90
2018-12-05T16:52:45.693Z,13.67
2018-12-05T16:55:14.653Z,17.10
2018-12-05T16:57:43.536Z,13.70
2018-12-05T17:00:15.812Z,14.17
2018-12-05T17:02:44.897Z,17.77
2018-12-05T17:05:14.112Z,16.93
2018-12-05T17:07:43.086Z,14.70
2018-12-05T17:10:12.064Z,15.20
2018-12-05T17:12:40.945Z,15.43
2018-12-05T17:15:09.964Z,16.27
2018-12-05T17:17:38.849Z,14.00
2018-12-05T17:20:08.128Z,14.10
2018-12-05T17:22:37.308Z,21.73
2018-12-05T17:25:06.403Z,15.80
2018-12-05T17:27:35.290Z,13.30
2018-12-05T17:30:05.333Z,14.40
2018-12-05T17:32:34.409Z,17.60
2018-12-05T17:35:03.418Z,15.60
2018-12-05T17:37:32.356Z,13.77
2018-12-05T17:40:01.240Z,13.00
2018-12-05T17:42:30.441Z,13.43
2018-12-05T17:44:59.328Z,15.50
2018-12-05T17:47:28.212Z,16.50
2018-12-05T17:49:57.364Z,16.93
2018-12-05T17:52:26.312Z,17.40
2018-12-05T17:54:55.188Z,15.97
2018-12-05T17:57:24.093Z,24.60
2018-12-05T17:59:53.032Z,21.97
2018-12-05T18:02:21.862Z,19.83
2018-12-05T18:04:50.748Z,25.43
2018-12-05T18:07:19.669Z,19.90
2018-12-05T18:09:48.695Z,21.07
2018-12-05T18:12:17.651Z,21.17
2018-12-05T18:14:46.536Z,21.90
2018-12-05T18:17:15.752Z,24.30
2018-12-05T18:19:44.727Z,19.97
2018-12-05T18:22:13.624Z,22.57
2018-12-05T18:24:42.667Z,19.90
2018-12-05T18:27:11.558Z,23.00
2018-12-05T18:29:40.549Z,18.10
2018-12-05T18:32:09.457Z,21.10
2018-12-05T18:34:38.568Z,19.43
2018-12-05T18:37:07.500Z,20.03
2018-12-05T18:39:36.791Z,17.80
2018-12-05T18:42:05.684Z,19.63
2018-12-05T18:44:34.568Z,15.97
2018-12-05T18:47:03.506Z,14.80
2018-12-05T18:49:32.607Z,23.20
2018-12-05T18:52:01.632Z,19.60
2018-12-05T18:54:30.558Z,24.23
2018-12-05T18:56:59.592Z,21.83
2018-12-05T18:59:28.536Z,18.10
2018-12-05T19:01:57.451Z,19.07
2018-12-05T19:04:26.479Z,19.67
2018-12-05T19:06:55.463Z,16.40
2018-12-05T19:09:26.993Z,19.23
2018-12-05T19:11:55.312Z,18.90
2018-12-05T19:14:29.723Z,17.37
2018-12-05T19:16:58.617Z,25.13
2018-12-05T19:19:27.518Z,24.97
2018-12-05T19:21:56.431Z,16.43
2018-12-05T19:24:25.411Z,19.87
2018-12-05T19:26:54.307Z,21.60
2018-12-05T19:29:23.205Z,19.07
2018-12-05T19:31:52.162Z,17.60
2018-12-05T19:34:21.081Z,20.13
2018-12-05T19:36:49.964Z,19.20
2018-12-05T19:39:19.120Z,18.20
2018-12-05T19:41:48.257Z,17.80
2018-12-05T19:44:17.129Z,19.53
2018-12-05T19:46:46.096Z,21.80
2018-12-05T19:49:14.954Z,19.90
2018-12-05T19:51:44.010Z,19.40
2018-12-05T19:54:12.972Z,19.83
2018-12-05T19:56:41.846Z,23.73
2018-12-05T19:59:10.867Z,25.50
2018-12-05T20:01:39.749Z,18.07
2018-12-05T20:04:08.633Z,19.00
2018-12-05T20:06:37.760Z,19.57
2018-12-05T20:09:08.633Z,16.37
2018-12-05T20:11:37.574Z,19.47
2018-12-05T20:14:06.572Z,15.00
2018-12-05T20:16:35.497Z,11.37
2018-12-05T20:19:04.489Z,13.03
2018-12-05T20:21:33.355Z,15.97
2018-12-05T20:24:02.523Z,10.30
2018-12-05T20:26:32.970Z,11.93
2018-12-05T20:29:01.881Z,12.67
2018-12-05T20:31:30.780Z,13.73
2018-12-05T20:33:59.653Z,12.33
2018-12-05T20:36:28.547Z,15.37
2018-12-05T20:38:57.492Z,11.50
2018-12-05T20:41:32.351Z,14.03
2018-12-05T20:43:58.167Z,13.90
2018-12-05T20:46:27.023Z,9.07
2018-12-05T20:48:55.924Z,10.30
2018-12-05T20:51:25.259Z,15.70
2018-12-05T20:53:54.140Z,15.03
2018-12-05T20:56:23.024Z,15.87
2018-12-05T20:58:52.464Z,13.80
2018-12-05T21:01:21.364Z,16.60
2018-12-05T21:03:50.308Z,16.27
2018-12-05T21:06:19.415Z,16.00
2018-12-05T21:08:48.272Z,14.10
2018-12-05T21:11:17.331Z,14.53
2018-12-05T21:13:46.292Z,12.93
2018-12-05T21:16:15.320Z,14.00
2018-12-05T21:18:44.287Z,29.10
2018-12-05T21:21:13.423Z,21.53
2018-12-05T21:23:42.295Z,18.23
2018-12-05T21:26:11.192Z,16.10
2018-12-05T21:28:40.046Z,15.67
2018-12-05T21:31:09.006Z,13.20
2018-12-05T21:33:38.067Z,18.47
2018-12-05T21:36:07.012Z,14.17
2018-12-05T21:38:35.970Z,13.20
2018-12-05T21:41:04.903Z,13.87
2018-12-05T21:43:33.783Z,12.60
2018-12-05T21:46:02.678Z,12.00
2018-12-05T21:48:31.565Z,11.40
2018-12-05T21:51:00.544Z,11.07
2018-12-05T21:53:29.472Z,9.23
2018-12-05T21:55:58.432Z,8.83
2018-12-05T21:58:27.448Z,10.23
2018-12-05T22:00:56.414Z,9.40
2018-12-05T22:03:25.379Z,9.97
2018-12-05T22:05:54.905Z,9.90
2018-12-05T22:08:23.746Z,9.87
2018-12-05T22:10:52.820Z,9.10
2018-12-05T22:13:21.735Z,11.30
2018-12-05T22:15:50.596Z,10.03
2018-12-05T22:18:19.494Z,10.67
2018-12-05T22:20:48.376Z,16.00
2018-12-05T22:23:17.278Z,12.40
2018-12-05T22:25:46.250Z,10.23
2018-12-05T22:28:15.147Z,8.80
2018-12-05T22:30:44.076Z,7.83
2018-12-05T22:33:12.948Z,7.27
2018-12-05T22:35:41.803Z,9.50
2018-12-05T22:38:10.759Z,8.83
2018-12-05T22:40:39.599Z,6.63
2018-12-05T22:43:08.498Z,6.37
2018-12-05T22:45:37.350Z,6.47
2018-12-05T22:48:06.326Z,6.23
2018-12-05T22:50:35.219Z,5.97
2018-12-05T22:53:04.871Z,5.70
2018-12-05T22:55:33.848Z,7.93
2018-12-05T22:58:02.909Z,7.37
2018-12-05T23:00:32.368Z,9.87
2018-12-05T23:03:01.477Z,7.13
2018-12-05T23:05:30.387Z,10.60
2018-12-05T23:07:59.663Z,11.33
2018-12-05T23:10:28.697Z,9.70
2018-12-05T23:12:57.777Z,6.00
2018-12-05T23:15:27.258Z,5.10
2018-12-05T23:17:56.111Z,5.10
2018-12-05T23:20:25.716Z,5.97
2018-12-05T23:22:54.858Z,5.47
2018-12-05T23:25:23.783Z,3.67
2018-12-05T23:27:52.653Z,3.80
2018-12-05T23:30:21.523Z,3.93
2018-12-05T23:32:50.596Z,3.80
2018-12-05T23:35:19.547Z,5.43
2018-12-05T23:37:48.429Z,5.90
2018-12-05T23:40:17.298Z,2.83
2018-12-05T23:42:47.968Z,3.30
2018-12-05T23:45:17.316Z,2.63
2018-12-05T23:47:46.189Z,3.30
2018-12-05T23:50:15.205Z,5.20
2018-12-05T23:52:44.043Z,2.17
2018-12-05T23:55:12.942Z,2.33
2018-12-05T23:57:41.914Z,2.60
